EDT,Max TemperatureF,Mean TemperatureF,Min TemperatureF,Max Dew PointF,MeanDew PointF,Min DewpointF,Max Humidity, Mean Humidity, Min Humidity, Max Sea Level PressureIn, Mean Sea Level PressureIn, Min Sea Level PressureIn, Max VisibilityMiles, Mean VisibilityMiles, Min VisibilityMiles, Max Wind SpeedMPH, Mean Wind SpeedMPH, Max Gust SpeedMPH,PrecipitationIn, CloudCover, Events, WindDirDegrees
2013-3-1,32,28,22,32,29,20,100,96,80,29.90,29.76,29.68,10,6,0,14,5,18,0.02,8,Fog-Snow,339
2013-3-2,21,19,17,20,16,14,93,85,74,29.91,29.89,29.86,10,10,5,10,7,,0.00,8,Snow,328
2013-3-3,23,19,15,19,16,14,100,89,68,29.86,29.85,29.81,10,8,4,9,5,,0.00,8,Snow,300
2013-3-4,27,22,17,21,15,12,93,75,64,30.00,29.90,29.83,10,10,10,16,8,23,0.00,8,Snow,301
2013-3-5,33,26,20,22,19,17,92,80,57,30.11,30.07,30.02,10,10,10,8,2,,0.04,5,,24
2013-3-6,38,28,18,31,27,18,99,86,73,30.17,30.12,30.06,10,10,10,16,7,,0.00,7,,53
2013-3-7,32,29,25,29,25,23,100,86,68,30.27,30.24,30.17,10,9,4,17,10,24,0.00,8,Snow,23
2013-3-8,36,29,22,26,23,18,99,81,54,30.39,30.30,30.25,10,10,8,17,7,17,0.02,5,Snow,6
2013-3-9,43,30,17,22,19,15,91,64,39,30.41,30.36,30.28,10,10,8,10,3,,0.00,0,,188
2013-3-10,48,38,29,28,25,22,75,55,41,30.27,30.13,30.03,10,10,10,18,13,,0.00,7,,148
2013-3-11,48,44,41,40,32,28,87,62,52,30.03,29.90,29.76,10,10,10,25,17,32,0.06,4,Rain,146
2013-3-12,44,40,34,45,38,32,100,96,81,29.88,29.81,29.72,10,10,4,24,12,31,0.22,8,Rain,235
2013-3-13,39,31,25,34,29,21,100,90,63,29.88,29.83,29.81,10,7,0,22,9,31,0.01,7,Fog-Rain-Snow,247
2013-3-14,25,20,13,25,13,1,100,76,53,30.01,29.91,29.82,10,8,2,14,10,23,0.00,7,Snow,289
2013-3-15,37,26,14,32,27,8,100,88,60,30.01,29.70,29.61,10,5,0,23,10,31,0.01,7,Fog-Rain-Snow,261
2013-3-16,23,16,11,14,8,5,83,67,54,29.96,29.91,29.86,10,10,10,9,6,,0.00,3,,11
2013-3-17,26,19,12,12,6,1,79,60,35,30.35,30.13,29.95,10,10,10,13,6,18,0.00,2,,296
2013-3-18,37,24,10,29,15,3,96,66,28,30.41,30.13,29.88,10,8,2,22,11,26,0.00,5,Rain-Snow,135
2013-3-19,34,30,26,34,28,22,100,93,80,29.88,29.76,29.68,10,4,0,31,17,43,0.01,7,Fog-Rain-Snow,202
2013-3-20,32,27,22,27,22,18,100,85,57,29.78,29.75,29.73,10,8,1,21,7,29,0.02,8,Snow,258
2013-3-21,29,22,15,23,21,12,100,85,53,29.76,29.71,29.69,10,6,1,18,9,25,0.00,7,Snow,220
2013-3-22,29,24,19,25,22,15,100,90,58,29.83,29.72,29.66,10,7,1,16,6,22,0.02,8,Snow,256
2013-3-23,35,29,24,27,22,20,100,75,56,29.94,29.86,29.83,10,10,3,16,9,24,0.02,6,Rain-Snow,278
2013-3-24,35,32,27,23,22,20,80,66,56,29.95,29.89,29.81,10,10,10,10,6,,0.00,7,,342
2013-3-25,39,32,25,28,24,21,84,73,60,29.78,29.70,29.62,10,10,10,20,9,,0.00,3,,50
2013-3-26,42,36,30,29,25,19,86,74,39,29.89,29.80,29.70,10,10,5,14,7,20,0.00,6,Snow,33
2013-3-27,44,38,32,32,30,28,96,74,57,30.00,29.94,29.85,10,10,10,13,7,17,0.00,6,Rain,252
2013-3-28,45,38,32,37,34,31,97,80,69,30.14,30.07,29.99,10,10,10,14,7,,0.00,7,Rain,263
2013-3-29,42,38,34,33,32,29,87,79,66,30.17,30.14,30.11,10,10,10,13,7,,0.00,6,Rain,248
2013-3-30,49,37,26,30,24,17,96,59,32,30.18,30.13,30.07,10,10,10,14,6,18,0.00,0,,237
2013-3-31,54,42,31,42,35,22,100,80,38,30.07,29.79,29.64,10,10,8,28,13,36,0.24,5,Rain,163